METAR Data
IDs: Format: Raw Decoded Include TAF

Data at: 0050 UTC 19 Nov 2018

PADQ 182353Z 31011KT 10SM -RA FEW040 OVC048 08/07 A2932 RMK SLP928 P0001 60010 T00780067 10083 20067 56016 VIA AUTODIAL
PADQ 182253Z 31008KT 10SM -RA OVC060 08/07 A2933 RMK SLP932 P0002 T00780067 VIA AUTODIAL
PADQ 182153Z 31006KT 10SM -RA FEW038 OVC060 08/07 A2935 RMK SLP939 P0002 T00780072 VIA AUTODIAL
PADQ 182053Z 00000KT 9SM -RA FEW025 OVC041 08/07 A2937 RMK SLP944 P0002 60005 T00780072 50000 VIA AUTODIAL
PADQ 181953Z 00000KT 5SM -RA BR FEW025 BKN035 OVC045 07/07 A2937 RMK RAB1854 SLP946 P0003 T00720072 VIA AUTODIAL
PADQ 181853Z 19003KT 10SM FEW025 OVC043 07/07 A2937 RMK SLP944 T00720067 VIA AUTODIAL
PADQ 181844Z 00000KT 9SM SCT025 OVC043 07/07 A2937 RMK T00720067 VIA AUTODIAL
PADQ 181832Z 00000KT 10SM BKN025 OVC043 07/07 A2936 RMK T00720067 VIA AUTODIAL
PADQ 181816Z 00000KT 9SM FEW025 OVC045 07/07 A2937 RMK T00670067 VIA AUTODIAL
PADQ 181753Z 00000KT 9SM FEW003 BKN027 OVC043 07/07 A2937 RMK SLP944 T00720067 10072 20067 53001 VIA AUTODIAL
PADQ 181751Z 00000KT 9SM FEW003 BKN027 OVC043 07/07 A2937 RMK VIA AUTODIAL
PADQ 181653Z 16003KT 10SM SCT027 OVC046 07/07 A2936 RMK SLP943 T00720067 VIA AUTODIAL
PADQ 181553Z 21004KT 8SM OVC032 07/07 A2936 RMK SLP943 T00720067 VIA AUTODIAL
PADQ 181453Z AUTO 29004KT 9SM OVC043 07/07 A2936 RMK SLP943 T00670067 58008 TSNO VIA AUTODIAL
PADQ 181436Z AUTO 27003KT 10SM SCT003 OVC045 07/07 A2937 RMK T00670067 TSNO VIA AUTODIAL
PADQ 181413Z AUTO 27003KT 10SM BKN003 OVC043 07/07 A2936 RMK T00670067 TSNO VIA AUTODIAL
PADQ 181353Z AUTO 00000KT 8SM FEW004 BKN041 OVC050 07/07 A2937 RMK SLP945 T00670067 TSNO VIA AUTODIAL
PADQ 181348Z AUTO 26003KT 3SM BR FEW003 BKN041 OVC050 07/07 A2937 RMK TSNO VIA AUTODIAL
PADQ 181344Z AUTO 25003KT 1 3/4SM BR FEW003 SCT041 OVC050 07/07 A2937 RMK T00670067 TSNO VIA AUTODIAL
PADQ 181324Z AUTO 25003KT 2SM BR SCT002 OVC039 07/07 A2937 RMK T00720072 TSNO VIA AUTODIAL
PADQ 181320Z AUTO 24003KT 1SM BR FEW002 BKN039 OVC050 07/07 A2938 RMK T00670067 TSNO VIA AUTODIAL
PADQ 181312Z AUTO 00000KT 3/4SM BR FEW028 OVC033 07/07 A2937 RMK T00720072 TSNO VIA AUTODIAL
PADQ 181253Z AUTO 00000KT 3/4SM BR FEW005 OVC029 07/07 A2939 RMK SLP951 T00720072 TSNO VIA AUTODIAL
PADQ 181250Z AUTO 00000KT 3/4SM BR SCT004 OVC029 07/07 A2939 RMK TSNO VIA AUTODIAL
PADQ 181242Z AUTO 00000KT 1 1/4SM BR SCT004 BKN015 OVC029 07/07 A2939 RMK T00720072 TSNO VIA AUTODIAL
PADQ 181238Z AUTO 00000KT 1SM BR BKN004 OVC031 07/07 A2939 RMK T00720072 TSNO VIA AUTODIAL
PADQ 181209Z AUTO 00000KT 1/2SM FG VV003 07/07 A2939 RMK T00720072 TSNO VIA AUTODIAL
PADQ 181204Z AUTO 00000KT 1SM BR OVC002 07/07 A2939 RMK T00720072 TSNO VIA AUTODIAL
PADQ 181201Z AUTO 00000KT 2SM BR OVC002 07/07 A2939 RMK T00720072 TSNO VIA AUTODIAL
PADQ 181153Z AUTO 00000KT 8SM OVC003 07/07 A2939 RMK SLP951 60007 70011 T00720072 10089 20072 56014 TSNO VIA AUTODIAL
PADQ 181138Z AUTO 00000KT 3SM BR BKN003 OVC008 07/07 A2939 RMK T00720072 TSNO VIA AUTODIAL
PADQ 181130Z AUTO 23003KT 1 1/4SM BR BKN003 BKN008 OVC090 07/07 A2939 RMK T00720072 TSNO VIA AUTODIAL
PADQ 181127Z AUTO 23003KT 1SM BR SCT003 BKN008 OVC090 07/07 A2939 RMK T00720072 TSNO VIA AUTODIAL
PADQ 181122Z AUTO 00000KT 3/4SM BR BKN004 BKN008 OVC090 07/07 A2939 RMK T00720072 TSNO VIA AUTODIAL
PADQ 181113Z AUTO 00000KT 1SM BR BKN004 BKN055 OVC090 07/07 A2939 RMK T00720072 TSNO VIA AUTODIAL
PADQ 181053Z AUTO 00000KT 3/4SM BR VV004 08/07 A2939 RMK RAE52 SLP954 P0004 T00780072 TSNO VIA AUTODIAL
PADQ 181039Z AUTO 00000KT 3/4SM -RA BR VV004 08/07 A2940 RMK P0004 T00780072 TSNO VIA AUTODIAL
PADQ 181020Z AUTO 00000KT 1SM RA BR VV004 08/07 A2941 RMK P0002 T00780072 TSNO VIA AUTODIAL
PADQ 180953Z AUTO 04003KT 1 3/4SM -RA BR OVC003 08/07 A2942 RMK SLP961 P0000 T00780072 TSNO VIA AUTODIAL
PADQ 180951Z AUTO 00000KT 2SM -RA BR OVC003 08/07 A2942 RMK P0000 TSNO VIA AUTODIAL
PADQ 180936Z AUTO 00000KT 6SM -RA BR BKN003 OVC022 08/07 A2942 RMK P0000 T00780072 TSNO VIA AUTODIAL
PADQ 180927Z AUTO 10004KT 5SM -RA BR SCT003 BKN022 OVC030 08/07 A2942 RMK P0000 T00780072 TSNO VIA AUTODIAL
PADQ 180853Z AUTO 09007KT 5SM -RA BR BKN055 OVC070 08/07 A2943 RMK SLP965 P0003 60003 T00780072 400890072 56001 TSNO VIA AUTODIAL
PADQ 180753Z AUTO 04003KT 10SM -RA OVC050 08/07 A2943 RMK RAB46 SLP965 P0000 T00830072 TSNO VIA AUTODIAL
PADQ 180653Z AUTO 14007KT 10SM OVC055 08/07 A2943 RMK SLP965 T00830072 TSNO VIA AUTODIAL
PADQ 180635Z AUTO 11009KT 10SM SCT021 OVC055 08/07 A2942 RMK T00830072 TSNO VIA AUTODIAL
PADQ 180553Z AUTO 11008KT 10SM BKN021 BKN031 OVC065 09/07 A2943 RMK SLP966 60000 T00890072 10089 20072 50003 TSNO VIA AUTODIAL
PADQ 180551Z AUTO 11009KT 10SM SCT019 BKN025 OVC065 09/07 A2943 RMK TSNO VIA AUTODIAL
PADQ 180548Z AUTO 11009KT 10SM FEW019 BKN033 OVC065 08/07 A2943 RMK TSNO VIA AUTODIAL
PADQ 180453Z 12008KT 10SM BKN017 OVC022 08/08 A2942 RMK SLP964 T00830078 VIA AUTODIAL
PADQ 180353Z 10007KT 10SM OVC018 08/08 A2942 RMK SLP963 T00830078 VIA AUTODIAL
PADQ 180253Z 09008KT 060V150 10SM BKN007 OVC023 08/08 A2942 RMK RAB23E33 SLP962 P0000 60000 T00830078 55004 VIA AUTODIAL
PADQ 180234Z 10006KT 10SM BKN007 OVC023 08/08 A2942 RMK RAB23E33 P0000 T00830078 VIA AUTODIAL
PADQ 180153Z 11006KT 9SM FEW005 OVC023 08/07 A2941 RMK SLP960 T00780072 VIA AUTODIAL
PADQ 180053Z 11006KT 5SM BR FEW004 BKN019 OVC036 07/07 A2943 RMK SLP965 T00720067 VIA AUTODIAL
PADQ 180051Z 12006KT 5SM BR SCT004 BKN019 OVC036 07/07 A2943 RMK VIA AUTODIAL
PADQ 180026Z AUTO 12007KT 3SM BR BKN004 OVC024 07/07 A2943 RMK T00720067 TSNO VIA AUTODIAL
PADQ 180018Z 12007KT 2 1/2SM BR BKN004 OVC024 07/07 A2943 RMK T00720067 VIA AUTODIAL
PADQ 172353Z 12006KT 3SM BR BKN006 BKN019 OVC030 07/07 A2944 RMK SLP970 T00720072 10089 20072 56008 VIA AUTODIAL
PADQ 172341Z 12007KT 3SM BR BKN007 BKN023 OVC030 07/07 A2945 RMK T00720067 VIA AUTODIAL
PADQ 172334Z 13006KT 3SM BR SCT006 OVC030 07/07 A2945 RMK T00720067 VIA AUTODIAL
PADQ 172253Z 14009KT 9SM FEW008 OVC023 08/07 A2945 RMK SLP974 T00780067 VIA AUTODIAL
PADQ 172251Z 14009KT 8SM FEW008 OVC023 08/07 A2945 RMK VIA AUTODIAL
PADQ 172235Z 15014KT 6SM BR FEW016 BKN021 OVC120 08/07 A2945 RMK T00780067 VIA AUTODIAL
PADQ 172153Z 15014KT 10SM BKN075 OVC095 08/07 A2946 RMK SLP974 T00830067 VIA AUTODIAL
PADQ 172053Z 15010KT 10SM SCT065 OVC110 08/07 A2947 RMK SLP978 T00830067 50000 VIA AUTODIAL
PADQ 172015Z 15012KT 10SM FEW023 SCT070 OVC110 09/07 A2947 RMK T00890067 VIA AUTODIAL
PADQ 171953Z 14010KT 10SM BKN025 OVC070 08/07 A2947 RMK SLP979 T00830072 VIA AUTODIAL
PADQ 171920Z 15006KT 10SM SCT020 BKN026 OVC085 08/07 A2947 RMK T00780072 VIA AUTODIAL
PADQ 171902Z 09003KT 10SM FEW002 BKN034 OVC080 08/07 A2947 RMK T00780072 VIA AUTODIAL
PADQ 171853Z 10005KT 5SM BR SCT002 BKN014 OVC023 07/07 A2947 RMK SLP980 T00720072 VIA AUTODIAL
PADQ 171834Z 14003KT 3SM BR SCT002 BKN014 OVC110 07/07 A2947 RMK T00720072 VIA AUTODIAL
PADQ 171832Z 00000KT 1 3/4SM BR SCT002 BKN023 OVC110 07/07 A2947 RMK T00720072 VIA AUTODIAL
PADQ 171825Z 20004KT 10SM FEW007 BKN023 OVC120 07/07 A2948 RMK T00720067 VIA AUTODIAL
PADQ 171815Z 14005KT 10SM FEW014 BKN023 07/07 A2948 RMK T00720072 VIA AUTODIAL
PADQ 171753Z 04003KT 10SM FEW003 FEW016 SCT023 07/07 A2947 RMK SLP978 60004 T00720072 10078 20072 50000 VIA AUTODIAL
PADQ 171736Z 00000KT 7SM SCT004 OVC023 07/07 A2947 RMK T00720072 VIA AUTODIAL
PADQ 171716Z 15003KT 2SM BR BKN004 BKN008 OVC025 07/07 A2947 RMK T00720072 VIA AUTODIAL
PADQ 171704Z 06004KT 4SM BR OVC006 07/07 A2947 RMK T00720072 VIA AUTODIAL
PADQ 171653Z 04006KT 1/2SM FG OVC006 07/07 A2947 RMK SLP979 T00720072 VIA AUTODIAL
PADQ 171651Z 04006KT 1/2SM FG OVC004 07/07 A2947 RMK VIA AUTODIAL
PADQ 171637Z 04003KT 1/2SM FG OVC005 07/07 A2947 RMK T00720072 VIA AUTODIAL
PADQ 171629Z 12003KT 1SM BR BKN007 OVC012 07/07 A2947 RMK T00720072 VIA AUTODIAL
PADQ 171622Z 00000KT 2 1/2SM BR FEW004 OVC009 07/07 A2947 RMK T00720072 VIA AUTODIAL
PADQ 171610Z 00000KT 1 1/4SM BR OVC009 07/07 A2947 RMK T00720072 VIA AUTODIAL
PADQ 171603Z 00000KT 3/4SM BR VV009 07/07 A2947 RMK T00720072 VIA AUTODIAL
PADQ 171553Z 16004KT 1 3/4SM BR OVC007 07/07 A2947 RMK SLP978 T00720072 VIA AUTODIAL
PADQ 171550Z 16004KT 1 1/4SM BR OVC007 07/07 A2947 RMK VIA AUTODIAL
PADQ 171523Z AUTO 00000KT 3/4SM BR VV008 08/07 A2947 RMK T00780072 TSNO VIA AUTODIAL
PADQ 171502Z AUTO 00000KT 1SM BR VV007 08/07 A2947 RMK T00780072 TSNO VIA AUTODIAL
PADQ 171453Z AUTO 19003KT 3/4SM BR VV006 08/07 A2947 RMK SLP981 60004 T00780072 55001 TSNO VIA AUTODIAL
PADQ 171353Z AUTO 04003KT 3/4SM BR VV006 08/07 A2947 RMK SLP980 P0002 T00780072 TSNO VIA AUTODIAL
PADQ 171342Z AUTO 05003KT 3/4SM BR VV006 08/07 A2948 RMK P0002 T00780072 TSNO VIA AUTODIAL
PADQ 171335Z AUTO 04003KT 1SM BR VV006 08/08 A2947 RMK P0002 T00780078 TSNO VIA AUTODIAL
PADQ 171325Z AUTO 04004KT 3/4SM BR VV006 08/08 A2947 RMK P0001 T00780078 TSNO VIA AUTODIAL
PADQ 171314Z AUTO 04005KT 1SM BR VV006 08/08 A2948 RMK P0001 T00780078 TSNO VIA AUTODIAL
PADQ 171303Z AUTO 04004KT 3/4SM BR VV005 08/08 A2948 RMK P0001 T00780078 TSNO VIA AUTODIAL
PADQ 171253Z AUTO 04004KT 1SM BR VV005 08/08 A2948 RMK RAE37 SLP982 P0002 T00780078 TSNO VIA AUTODIAL